createdAt,value
2019-04-22T06:45:29.092Z,14.80
2019-04-22T06:48:06.746Z,11.90
2019-04-22T06:50:43.505Z,12.68
2019-04-22T06:53:09.218Z,13.93
2019-04-22T06:55:41.374Z,15.60
2019-04-22T06:58:15.277Z,12.10
2019-04-22T07:03:39.909Z,10.28
2019-04-22T07:05:52.346Z,11.90
2019-04-22T07:08:59.515Z,12.98
2019-04-22T07:10:50.453Z,12.07
2019-04-22T07:13:29.094Z,11.90
2019-04-22T07:16:01.744Z,10.28
2019-04-22T07:18:35.989Z,10.80
2019-04-22T07:21:01.374Z,10.80
2019-04-22T07:26:05.994Z,11.85
2019-04-22T07:28:29.539Z,10.25
2019-04-22T07:31:10.372Z,11.73
2019-04-22T07:33:42.439Z,10.05
2019-04-22T07:38:42.787Z,10.90
2019-04-22T07:41:24.833Z,9.85
2019-04-22T07:44:07.389Z,10.93
2019-04-22T07:46:18.501Z,8.20
2019-04-22T07:51:32.716Z,8.95
2019-04-22T07:53:56.321Z,10.15
2019-04-22T07:56:30.538Z,9.85
2019-04-22T07:59:03.481Z,9.03
2019-04-22T08:01:32.335Z,9.15
2019-04-22T08:04:16.071Z,9.45
2019-04-22T08:06:49.403Z,8.85
2019-04-22T08:09:13.908Z,11.90
2019-04-22T08:14:18.927Z,11.73
2019-04-22T08:16:51.934Z,9.33
2019-04-22T08:19:22.280Z,8.73
2019-04-22T08:21:53.192Z,8.13
2019-04-22T08:24:25.293Z,9.15
2019-04-22T08:26:53.325Z,9.55
2019-04-22T08:31:59.214Z,6.62
2019-04-22T08:34:31.289Z,7.35
2019-04-22T08:39:35.898Z,6.75
2019-04-22T08:42:17.991Z,6.03
2019-04-22T08:45:04.907Z,6.00
2019-04-22T08:47:19.067Z,9.55
2019-04-22T08:50:03.143Z,6.87
2019-04-22T08:52:31.932Z,5.78
2019-04-22T08:55:07.744Z,6.60
2019-04-22T08:57:55.542Z,5.55
2019-04-22T09:00:06.850Z,5.83
2019-04-22T09:02:41.365Z,9.05
2019-04-22T09:05:12.267Z,7.10
2019-04-22T09:08:01.492Z,6.60
2019-04-22T09:10:10.369Z,7.53
2019-04-22T09:13:03.546Z,7.37
2019-04-22T09:15:24.722Z,6.65
2019-04-22T09:20:25.905Z,8.10
2019-04-22T09:23:03.717Z,6.80
2019-04-22T09:25:34.535Z,6.03
2019-04-22T09:28:07.334Z,6.58
2019-04-22T09:30:40.532Z,7.92
2019-04-22T09:33:14.065Z,6.45
2019-04-22T09:36:07.816Z,8.38
2019-04-22T09:41:05.415Z,6.03
2019-04-22T09:43:24.152Z,5.58
2019-04-22T09:45:53.189Z,7.55
2019-04-22T09:48:29.752Z,7.90
2019-04-22T09:51:03.754Z,5.35
2019-04-22T09:53:29.745Z,8.95
2019-04-22T09:56:03.845Z,5.87
2019-04-22T09:58:39.423Z,7.35
2019-04-22T10:01:32.382Z,6.83
2019-04-22T10:04:18.573Z,6.95
2019-04-22T10:06:40.691Z,7.62
2019-04-22T10:09:34.397Z,5.78
2019-04-22T10:11:50.815Z,6.47
2019-04-22T10:14:29.063Z,6.35
2019-04-22T10:16:53.896Z,6.47
2019-04-22T10:19:30.010Z,6.20
2019-04-22T10:22:10.455Z,7.90
2019-04-22T10:24:39.114Z,8.10
2019-04-22T10:27:12.934Z,6.35
2019-04-22T10:32:33.584Z,5.65
2019-04-22T10:35:04.376Z,6.87
2019-04-22T10:37:34.733Z,4.90
2019-04-22T10:40:13.854Z,7.17
2019-04-22T10:42:51.448Z,6.67
2019-04-22T10:45:26.416Z,8.15
2019-04-22T10:47:58.261Z,5.35
2019-04-22T10:50:43.018Z,7.45
2019-04-22T10:53:15.446Z,6.50
2019-04-22T10:55:51.013Z,6.28
2019-04-22T10:58:23.004Z,6.15
2019-04-22T11:00:58.155Z,7.85
2019-04-22T11:03:28.914Z,10.63
2019-04-22T11:05:59.545Z,7.42
2019-04-22T11:08:40.413Z,9.93
2019-04-22T11:11:19.057Z,6.45
2019-04-22T11:13:37.898Z,8.55
2019-04-22T11:16:09.514Z,6.97
2019-04-22T11:18:41.343Z,7.55
2019-04-22T11:21:12.047Z,8.13
2019-04-22T11:23:42.710Z,5.95
2019-04-22T11:26:13.162Z,5.67
2019-04-22T11:28:43.516Z,5.47
2019-04-22T11:31:14.685Z,4.83
2019-04-22T11:33:44.931Z,5.95
2019-04-22T11:36:15.808Z,5.10
2019-04-22T11:38:55.289Z,6.80
2019-04-22T11:41:19.480Z,6.17
2019-04-22T11:43:51.290Z,6.03
2019-04-22T11:46:23.093Z,7.97
2019-04-22T11:48:54.133Z,7.85
2019-04-22T11:51:24.686Z,6.80
2019-04-22T11:53:54.890Z,5.75
2019-04-22T11:56:25.435Z,6.85
2019-04-22T11:58:57.120Z,8.30
2019-04-22T12:01:28.738Z,7.47
2019-04-22T12:04:01.969Z,7.53
2019-04-22T12:06:33.782Z,5.10
2019-04-22T12:09:06.147Z,7.87
2019-04-22T12:11:36.666Z,7.55
2019-04-22T12:14:07.075Z,10.60
2019-04-22T12:16:37.292Z,6.85
2019-04-22T12:19:09.094Z,6.55
2019-04-22T12:21:39.507Z,5.87
2019-04-22T12:24:10.935Z,8.80
2019-04-22T12:26:42.387Z,5.60
2019-04-22T12:29:13.194Z,6.70
2019-04-22T12:31:43.590Z,4.15
2019-04-22T12:34:15.541Z,5.22
2019-04-22T14:17:52.706Z,8.90
2019-04-22T14:20:22.424Z,10.63
2019-04-22T14:22:52.789Z,8.48
2019-04-22T14:25:24.855Z,13.90
2019-04-22T14:28:01.918Z,12.47
2019-04-22T14:30:24.715Z,10.35
2019-04-22T14:32:58.028Z,13.50
2019-04-22T14:37:58.233Z,13.50
2019-04-22T14:40:30.357Z,11.00
2019-04-22T14:44:15.607Z,9.55
2019-04-22T14:46:04.389Z,12.10
2019-04-22T14:48:28.172Z,12.20
2019-04-22T14:50:51.837Z,9.75
2019-04-22T14:53:21.398Z,12.23
2019-04-22T14:55:38.220Z,11.88
2019-04-22T14:58:07.109Z,12.25
2019-04-22T15:00:35.946Z,13.00
2019-04-22T15:03:05.991Z,12.10
2019-04-22T15:08:07.017Z,13.03
2019-04-22T15:10:39.907Z,14.03
2019-04-22T15:13:09.408Z,14.05
2019-04-22T15:16:02.699Z,17.23
2019-04-22T15:21:16.957Z,10.18
2019-04-22T15:26:16.738Z,9.75
2019-04-22T15:28:47.405Z,11.78
2019-04-22T15:31:15.331Z,14.68
2019-04-22T15:33:48.783Z,13.48
2019-04-22T15:38:47.173Z,12.65
2019-04-22T15:41:18.762Z,9.90
2019-04-22T15:43:47.756Z,14.65
2019-04-22T15:46:18.402Z,11.43
2019-04-22T16:17:46.607Z,11.88
2019-04-22T16:20:17.426Z,15.25
2019-04-22T16:23:07.743Z,13.03
2019-04-22T16:28:39.723Z,14.33
2019-04-22T16:31:11.297Z,13.35
2019-04-22T16:33:45.398Z,14.20
2019-04-22T16:36:16.762Z,17.90
2019-04-22T16:38:47.188Z,10.45
2019-04-22T16:41:18.827Z,15.10
2019-04-22T16:43:50.807Z,11.83
2019-04-22T16:46:30.012Z,13.78
2019-04-22T16:49:03.333Z,14.65
2019-04-22T16:51:36.211Z,14.47
2019-04-22T16:54:08.361Z,14.73
2019-04-22T16:56:41.667Z,15.32
2019-04-22T16:59:14.891Z,13.38
2019-04-22T17:02:06.302Z,13.40
2019-04-22T17:04:57.758Z,14.75
2019-04-22T17:07:29.896Z,16.52
2019-04-22T17:10:01.905Z,24.20
2019-04-22T17:12:44.293Z,12.65
2019-04-22T17:15:12.178Z,14.28
2019-04-22T17:17:43.251Z,14.73
2019-04-22T17:20:15.472Z,18.00
2019-04-22T17:22:43.774Z,14.85
2019-04-22T17:25:16.294Z,22.85
2019-04-22T17:30:18.064Z,14.25
2019-04-22T17:32:48.470Z,15.65
2019-04-22T17:35:17.847Z,13.88
2019-04-22T17:38:09.225Z,18.57
2019-04-22T17:40:44.842Z,16.73
2019-04-22T17:43:36.571Z,13.85
2019-04-22T17:46:12.062Z,17.52
2019-04-22T17:51:26.926Z,17.77
2019-04-22T17:56:20.617Z,18.12
2019-04-22T18:01:25.243Z,21.77
2019-04-22T18:03:42.357Z,21.07
2019-04-22T18:06:39.221Z,22.27
2019-04-22T18:09:01.779Z,27.27
2019-04-22T18:11:45.971Z,16.02
2019-04-22T18:14:35.980Z,17.92
2019-04-22T18:19:49.170Z,24.98
2019-04-22T18:22:27.369Z,15.05
2019-04-22T18:25:07.707Z,18.07
2019-04-22T18:27:56.884Z,15.23
2019-04-22T18:30:18.031Z,15.25
2019-04-22T18:35:26.945Z,17.07
2019-04-22T18:38:04.680Z,19.05
2019-04-22T18:40:30.809Z,19.07
2019-04-22T18:43:06.287Z,21.15
2019-04-22T18:45:39.619Z,23.25
2019-04-22T18:47:58.633Z,23.18
2019-04-22T18:50:41.438Z,16.87
2019-04-22T18:53:23.364Z,20.75
2019-04-22T18:56:09.747Z,23.10
2019-04-22T18:58:33.769Z,17.90
2019-04-22T19:00:48.228Z,16.90
2019-04-22T19:06:20.063Z,15.88
2019-04-22T19:08:36.803Z,21.30
2019-04-22T19:11:12.655Z,14.93
2019-04-22T19:14:00.724Z,17.32
2019-04-22T19:18:50.220Z,16.93
2019-04-22T19:21:13.454Z,28.17
2019-04-22T19:23:45.207Z,19.75
2019-04-22T19:28:45.222Z,19.62
2019-04-22T19:31:19.407Z,20.65
2019-04-22T19:33:46.239Z,19.23
2019-04-22T19:36:22.710Z,17.60
2019-04-22T19:38:48.730Z,25.23
2019-04-22T19:41:25.660Z,16.17
2019-04-22T19:46:19.472Z,18.77
2019-04-22T19:49:00.307Z,20.12
2019-04-22T19:51:28.046Z,19.17
2019-04-22T19:53:56.070Z,21.93
2019-04-22T19:56:21.478Z,20.23
2019-04-22T19:58:53.517Z,19.85
2019-04-22T20:01:28.998Z,22.30
2019-04-22T20:06:38.131Z,24.02
2019-04-22T20:09:13.553Z,23.27
2019-04-22T20:11:41.762Z,28.12
2019-04-22T20:14:12.612Z,23.95
2019-04-22T20:16:37.405Z,25.23
2019-04-22T20:19:19.112Z,22.58
2019-04-22T20:21:46.571Z,27.52
2019-04-22T20:26:50.106Z,24.02
2019-04-22T20:29:21.045Z,28.52
2019-04-22T20:31:49.730Z,27.90
2019-04-22T20:34:28.302Z,19.60
2019-04-22T20:37:10.220Z,23.15
2019-04-22T20:39:34.229Z,26.68
2019-04-22T20:42:18.053Z,26.57
2019-04-22T20:44:41.048Z,22.50
2019-04-22T20:47:03.158Z,24.35
2019-04-22T20:49:38.266Z,25.80
2019-04-22T20:52:11.434Z,22.10
2019-04-22T20:54:37.344Z,19.30
2019-04-22T20:59:32.930Z,21.20
2019-04-22T21:02:05.161Z,26.07
2019-04-22T21:04:28.551Z,21.97
2019-04-22T21:07:05.171Z,21.50
2019-04-22T21:12:05.032Z,22.30
2019-04-22T21:14:41.455Z,19.90
2019-04-22T21:17:13.826Z,25.35
2019-04-22T21:19:54.685Z,19.70
2019-04-22T21:22:22.778Z,18.77
2019-04-22T21:24:47.479Z,22.90
2019-04-22T21:27:25.484Z,24.12
2019-04-22T21:29:48.334Z,18.40
2019-04-22T21:32:23.547Z,19.82
2019-04-22T21:35:03.889Z,19.75
2019-04-22T21:37:34.694Z,22.77
2019-04-22T21:39:51.841Z,18.67
2019-04-22T21:42:39.394Z,19.20
2019-04-22T21:44:58.643Z,25.55
2019-04-22T21:47:44.790Z,17.87
2019-04-22T21:50:28.311Z,15.38
2019-04-22T21:52:42.605Z,19.55
2019-04-22T21:55:16.476Z,18.82
2019-04-22T21:58:04.822Z,22.58
2019-04-22T22:00:43.191Z,23.90
2019-04-22T22:03:13.059Z,23.80
2019-04-22T22:05:34.187Z,18.42
2019-04-22T22:08:23.469Z,17.10
2019-04-22T22:10:56.950Z,20.10
2019-04-22T22:13:22.758Z,17.52
2019-04-22T22:15:51.080Z,21.25
2019-04-22T22:18:21.362Z,21.17
2019-04-22T22:21:19.139Z,17.55
2019-04-22T22:23:57.723Z,25.43
2019-04-22T22:25:59.603Z,22.17
2019-04-22T22:28:51.525Z,19.25
2019-04-22T22:31:15.496Z,27.67
2019-04-22T22:33:45.118Z,21.93
2019-04-22T22:36:05.085Z,30.75
2019-04-22T22:38:35.170Z,26.80
2019-04-22T22:43:29.694Z,32.65
2019-04-22T22:46:09.429Z,29.60
2019-04-22T22:51:42.508Z,23.22
2019-04-22T22:54:23.685Z,27.07
2019-04-22T22:59:29.997Z,24.55
2019-04-22T23:01:54.159Z,23.42
2019-04-22T23:04:34.233Z,25.05
2019-04-22T23:07:06.658Z,24.52
2019-04-22T23:09:30.913Z,22.75
2019-04-22T23:12:10.367Z,19.98
2019-04-22T23:14:37.036Z,24.15
2019-04-22T23:16:55.064Z,20.88
2019-04-22T23:19:19.938Z,20.15
2019-04-22T23:21:54.396Z,20.40
2019-04-22T23:24:54.357Z,20.43
2019-04-22T23:27:34.577Z,22.70
2019-04-22T23:30:12.042Z,20.60
2019-04-22T23:32:41.193Z,18.23
2019-04-22T23:35:33.840Z,22.32
2019-04-22T23:38:08.108Z,18.25
2019-04-22T23:40:38.519Z,16.93
2019-04-22T23:43:15.320Z,17.70
2019-04-22T23:45:46.603Z,21.37
2019-04-22T23:48:12.835Z,17.92
2019-04-22T23:50:50.848Z,19.02
2019-04-22T23:53:55.852Z,15.28
2019-04-22T23:56:04.320Z,17.50
2019-04-22T23:59:04.748Z,17.00
